createdAt,value
2023-07-20T00:03:26.544Z,99568.44
2023-07-20T00:07:28.266Z,99573.66
2023-07-20T00:11:30.030Z,99574.56
2023-07-20T00:15:31.746Z,99570.78
2023-07-20T00:19:33.616Z,99567.78
2023-07-20T00:23:36.482Z,99569.69
2023-07-20T00:27:38.431Z,99568.25
2023-07-20T00:31:40.291Z,99573.72
2023-07-20T00:35:42.023Z,99571.03
2023-07-20T00:39:43.693Z,99574.97
2023-07-20T00:43:45.386Z,99571.03
2023-07-20T00:47:47.595Z,99569.41
2023-07-20T00:51:50.843Z,99571.66
2023-07-20T00:55:52.783Z,99581.00
2023-07-20T00:59:55.043Z,99578.09
2023-07-20T01:03:56.766Z,99576.13
2023-07-20T01:08:03.735Z,99578.03
2023-07-20T01:12:13.275Z,99587.84
2023-07-20T01:16:14.963Z,99581.50
2023-07-20T01:20:19.158Z,99578.16
2023-07-20T01:24:32.530Z,99575.13
2023-07-20T01:29:09.178Z,99581.19
2023-07-20T01:33:14.517Z,99585.06
2023-07-20T01:37:18.031Z,99578.28
2023-07-20T01:41:20.075Z,99582.06
2023-07-20T01:45:22.109Z,99581.38
2023-07-20T01:49:23.884Z,99584.53
2023-07-20T01:53:25.564Z,99579.13
2023-07-20T01:57:27.263Z,99576.97
2023-07-20T02:01:29.994Z,99584.63
2023-07-20T02:05:31.838Z,99587.53
2023-07-20T02:09:33.638Z,99582.59
2023-07-20T02:13:35.404Z,99591.00
2023-07-20T02:17:37.188Z,99584.66
2023-07-20T02:21:40.220Z,99578.63
2023-07-20T02:25:42.166Z,99583.41
2023-07-20T02:29:44.006Z,99594.59
2023-07-20T02:33:47.092Z,99590.19
2023-07-20T02:37:49.024Z,99583.56
2023-07-20T02:41:51.655Z,99589.72
2023-07-20T02:45:54.671Z,99586.16
2023-07-20T02:49:56.378Z,99595.69
2023-07-20T02:53:58.210Z,99589.34
2023-07-20T02:57:59.984Z,99596.06
2023-07-20T03:02:01.755Z,99596.09
2023-07-20T03:06:03.587Z,99597.81
2023-07-20T03:10:07.839Z,99595.06
2023-07-20T03:14:09.548Z,99603.97
2023-07-20T03:18:11.678Z,99602.59
2023-07-20T03:22:13.447Z,99603.50
2023-07-20T03:26:15.192Z,99609.91
2023-07-20T03:30:17.004Z,99604.13
2023-07-20T03:34:18.777Z,99612.50
2023-07-20T03:38:21.269Z,99612.22
2023-07-20T03:42:23.015Z,99608.63
2023-07-20T03:46:25.111Z,99614.47
2023-07-20T03:50:27.125Z,99608.09
2023-07-20T03:54:28.796Z,99606.41
2023-07-20T03:58:31.490Z,99613.09
2023-07-20T04:02:33.744Z,99614.75
2023-07-20T04:06:35.583Z,99610.31
2023-07-20T04:10:37.306Z,99612.28
2023-07-20T04:14:39.174Z,99607.53
2023-07-20T04:18:40.946Z,99612.53
2023-07-20T04:22:42.784Z,99616.94
2023-07-20T04:26:47.604Z,99619.72
2023-07-20T04:30:52.458Z,99618.63
2023-07-20T04:34:54.794Z,99619.16
2023-07-20T04:38:56.827Z,99627.75
2023-07-20T04:42:58.931Z,99628.63
2023-07-20T04:47:01.058Z,99636.06
2023-07-20T04:51:04.602Z,99632.44
2023-07-20T04:55:06.756Z,99630.19
2023-07-20T04:59:08.755Z,99635.72
2023-07-20T05:03:10.676Z,99631.25
2023-07-20T05:07:12.763Z,99630.09
2023-07-20T05:11:14.724Z,99637.25
2023-07-20T05:15:16.723Z,99638.06
2023-07-20T05:19:18.598Z,99643.28
2023-07-20T05:23:23.728Z,99638.19
2023-07-20T05:27:25.722Z,99637.84
2023-07-20T05:31:27.682Z,99636.69
2023-07-20T05:35:29.532Z,99640.81
2023-07-20T05:39:33.676Z,99642.38
2023-07-20T05:43:35.404Z,99643.38
2023-07-20T05:47:38.763Z,99647.13
2023-07-20T05:51:40.542Z,99647.28
2023-07-20T05:55:42.537Z,99651.31
2023-07-20T05:59:45.599Z,99643.38
2023-07-20T06:03:47.480Z,99653.78
2023-07-20T06:07:49.182Z,99651.09
2023-07-20T06:11:51.205Z,99655.63
2023-07-20T06:15:53.030Z,99653.75
2023-07-20T06:19:54.744Z,99655.28
2023-07-20T06:23:56.487Z,99661.53
2023-07-20T06:27:58.598Z,99658.59
2023-07-20T06:32:00.890Z,99664.75
2023-07-20T06:36:02.647Z,99668.41
2023-07-20T06:44:10.641Z,99666.72
2023-07-20T06:48:12.419Z,99662.88
2023-07-20T06:52:14.195Z,99661.00
2023-07-20T06:56:16.384Z,99676.03
2023-07-20T07:00:18.409Z,99670.13
2023-07-20T07:04:21.557Z,99671.97
2023-07-20T07:08:23.385Z,99676.84
2023-07-20T07:12:25.241Z,99671.94
2023-07-20T07:16:27.232Z,99679.44
2023-07-20T07:20:29.293Z,99683.34
2023-07-20T07:24:34.943Z,99683.13
2023-07-20T07:28:37.790Z,99685.59
2023-07-20T07:32:39.578Z,99682.41
2023-07-20T07:36:41.765Z,99684.91
2023-07-20T07:40:44.096Z,99685.81
2023-07-20T07:44:46.468Z,99681.00
2023-07-20T07:48:48.914Z,99691.75
2023-07-20T07:52:50.639Z,99676.44
2023-07-20T07:56:54.764Z,99689.88
2023-07-20T08:00:56.617Z,99682.63
2023-07-20T08:04:58.714Z,99692.97
2023-07-20T08:09:02.554Z,99689.00
2023-07-20T08:13:04.765Z,99688.69
2023-07-20T08:17:07.847Z,99679.81
2023-07-20T08:21:09.891Z,99686.28
2023-07-20T08:25:11.677Z,99679.00
2023-07-20T08:29:13.369Z,99675.03
2023-07-20T08:33:16.222Z,99671.69
2023-07-20T08:37:18.092Z,99681.31
2023-07-20T08:41:20.628Z,99681.28
2023-07-20T08:45:23.580Z,99679.50
2023-07-20T08:49:25.498Z,99686.44
2023-07-20T08:53:29.770Z,99676.34
2023-07-20T08:57:34.300Z,99677.72
2023-07-20T09:01:40.795Z,99674.59
2023-07-20T09:05:44.766Z,99672.97
2023-07-20T09:09:48.659Z,99668.22
2023-07-20T09:14:10.776Z,99678.84
2023-07-20T09:18:12.528Z,99665.59
2023-07-20T09:22:14.985Z,99668.53
2023-07-20T09:26:17.798Z,99667.13
2023-07-20T09:30:20.284Z,99673.59
2023-07-20T09:38:27.574Z,99661.28
2023-07-20T09:50:55.745Z,99662.94
2023-07-20T09:54:58.762Z,99660.16
2023-07-20T09:59:01.396Z,99656.31
2023-07-20T10:03:05.188Z,99655.31
2023-07-20T10:07:12.787Z,99646.13
2023-07-20T10:11:17.216Z,99639.19
2023-07-20T10:15:22.495Z,99632.75
2023-07-20T10:19:50.592Z,99639.47
2023-07-20T10:23:53.161Z,99635.34
2023-07-20T10:27:56.159Z,99623.56
2023-07-20T10:31:59.301Z,99630.28
2023-07-20T10:36:08.927Z,99630.28
2023-07-20T10:40:34.231Z,99630.72
2023-07-20T10:44:38.698Z,99621.91
2023-07-20T10:49:07.084Z,99617.44
2023-07-20T10:53:13.840Z,99613.53
2023-07-20T10:57:32.940Z,99599.81
2023-07-20T11:01:37.937Z,99605.16
2023-07-20T11:05:42.027Z,99602.63
2023-07-20T11:09:46.796Z,99604.44
2023-07-20T11:14:02.151Z,99584.78
2023-07-20T11:18:16.045Z,99585.81
2023-07-20T11:22:18.847Z,99579.09
2023-07-20T11:26:20.747Z,99588.56
2023-07-20T11:30:22.799Z,99581.41
2023-07-20T11:34:25.639Z,99574.53
2023-07-20T11:38:27.327Z,99581.72
2023-07-20T11:46:35.816Z,99578.09
2023-07-20T11:50:41.190Z,99578.41
2023-07-20T11:54:48.779Z,99576.31
2023-07-20T11:58:51.402Z,99566.25
2023-07-20T12:02:55.057Z,99571.63
2023-07-20T12:06:56.969Z,99570.50
2023-07-20T12:10:58.978Z,99566.53
2023-07-20T12:15:21.299Z,99554.03
2023-07-20T12:19:26.721Z,99551.44
2023-07-20T12:23:35.895Z,99557.00
2023-07-20T12:27:38.912Z,99564.19
2023-07-20T12:31:40.907Z,99557.78
2023-07-20T12:35:44.523Z,99560.72
2023-07-20T12:39:48.308Z,99551.78
2023-07-20T12:43:51.807Z,99560.00
2023-07-20T12:47:53.564Z,99552.47
2023-07-20T12:51:55.450Z,99553.00
2023-07-20T12:55:57.263Z,99548.56
2023-07-20T12:59:59.046Z,99536.00
2023-07-20T13:12:11.827Z,99519.09
2023-07-20T13:16:13.705Z,99501.22
2023-07-20T13:20:15.789Z,99503.19
2023-07-20T13:24:18.403Z,99495.66
2023-07-20T13:28:20.220Z,99501.19
2023-07-20T13:32:22.135Z,99504.22
2023-07-20T13:36:24.603Z,99504.91
2023-07-20T13:40:26.444Z,99513.13
2023-07-20T13:44:30.560Z,99498.06
2023-07-20T13:48:37.405Z,99494.94
2023-07-20T13:52:42.480Z,99487.44
2023-07-20T13:56:44.266Z,99485.06
2023-07-20T14:00:46.237Z,99486.91
2023-07-20T14:06:17.433Z,99487.25
2023-07-20T14:09:14.811Z,99493.53
2023-07-20T14:13:17.189Z,99476.41
2023-07-20T14:17:19.091Z,99463.47
2023-07-20T14:21:25.424Z,99465.16
2023-07-20T14:25:29.689Z,99463.53
2023-07-20T14:29:32.845Z,99451.38
2023-07-20T14:33:36.309Z,99452.56
2023-07-20T14:37:38.865Z,99450.91
2023-07-20T14:41:41.263Z,99445.00
2023-07-20T14:45:43.230Z,99437.72
2023-07-20T14:49:45.832Z,99432.13
2023-07-20T14:53:47.662Z,99429.44
2023-07-20T14:57:49.766Z,99427.59
2023-07-20T15:01:55.860Z,99428.75
2023-07-20T15:05:57.617Z,99417.25
2023-07-20T15:09:59.489Z,99414.63
2023-07-20T15:14:01.474Z,99413.34
2023-07-20T15:18:03.374Z,99408.97
2023-07-20T15:22:09.859Z,99406.44
2023-07-20T15:26:12.665Z,99402.94
2023-07-20T15:30:50.253Z,99393.69
2023-07-20T15:34:37.157Z,99393.91
2023-07-20T15:38:39.589Z,99381.88
2023-07-20T15:42:53.390Z,99377.31
2023-07-20T15:46:56.050Z,99381.00
2023-07-20T15:50:57.753Z,99366.41
2023-07-20T15:54:59.523Z,99364.13
2023-07-20T15:59:01.311Z,99365.56
2023-07-20T16:03:03.171Z,99360.94
2023-07-20T16:07:08.247Z,99360.06
2023-07-20T16:11:10.282Z,99354.63
2023-07-20T16:15:12.614Z,99357.84
2023-07-20T16:19:14.242Z,99356.16
2023-07-20T16:23:16.131Z,99349.06
2023-07-20T16:27:18.177Z,99344.75
2023-07-20T16:31:19.977Z,99353.16
2023-07-20T16:35:23.932Z,99345.88
2023-07-20T16:39:47.760Z,99344.44
2023-07-20T16:47:55.865Z,99344.97
2023-07-20T16:51:58.714Z,99352.31
2023-07-20T16:56:00.645Z,99344.41
2023-07-20T17:00:02.983Z,99350.69
2023-07-20T17:04:04.912Z,99347.47
2023-07-20T17:08:06.775Z,99347.56
2023-07-20T17:12:09.692Z,99346.31
2023-07-20T17:16:11.932Z,99346.50
2023-07-20T17:32:29.628Z,99341.09
2023-07-20T17:40:37.479Z,99331.19
2023-07-20T17:44:39.525Z,99327.63
2023-07-20T17:48:41.460Z,99329.88
2023-07-20T17:52:43.418Z,99330.28
2023-07-20T17:56:45.498Z,99333.94
2023-07-20T18:00:47.460Z,99332.25
2023-07-20T18:04:49.155Z,99326.69
2023-07-20T18:08:50.916Z,99335.75
2023-07-20T18:12:53.466Z,99331.97
2023-07-20T18:16:55.221Z,99334.69
2023-07-20T18:20:56.979Z,99333.06
2023-07-20T18:24:58.713Z,99337.84
2023-07-20T18:29:02.483Z,99338.09
2023-07-20T18:33:05.285Z,99342.31
2023-07-20T18:37:07.114Z,99341.06
2023-07-20T18:41:08.856Z,99347.69
2023-07-20T18:45:10.833Z,99353.03
2023-07-20T18:49:12.515Z,99349.22
2023-07-20T18:53:14.409Z,99352.50
2023-07-20T18:57:16.232Z,99340.91
2023-07-20T19:01:18.107Z,99344.53
2023-07-20T19:05:20.278Z,99350.94
2023-07-20T19:09:22.636Z,99348.06
2023-07-20T19:13:24.385Z,99348.97
2023-07-20T19:17:26.931Z,99347.56
2023-07-20T19:21:29.378Z,99352.19
2023-07-20T19:25:32.669Z,99356.53
2023-07-20T19:29:35.000Z,99356.88
2023-07-20T19:33:36.907Z,99363.94
2023-07-20T19:37:39.113Z,99364.31
2023-07-20T19:41:40.831Z,99371.91
2023-07-20T19:45:42.818Z,99376.69
2023-07-20T19:49:44.556Z,99377.19
2023-07-20T19:57:51.079Z,99375.88
2023-07-20T20:01:52.851Z,99375.72
2023-07-20T20:05:55.129Z,99375.34
2023-07-20T20:09:57.109Z,99371.22
2023-07-20T20:13:58.837Z,99370.25
2023-07-20T20:18:01.149Z,99364.50
2023-07-20T20:22:05.308Z,99368.13
2023-07-20T20:26:08.402Z,99366.78
2023-07-20T20:30:11.127Z,99369.41
2023-07-20T20:34:12.814Z,99375.34
2023-07-20T20:38:14.929Z,99363.47
2023-07-20T20:42:16.886Z,99362.13
2023-07-20T20:46:21.990Z,99360.47
2023-07-20T20:50:24.215Z,99360.31
2023-07-20T20:54:26.111Z,99362.94
2023-07-20T20:58:28.008Z,99359.47
2023-07-20T21:02:29.779Z,99363.75
2023-07-20T21:06:31.786Z,99359.31
2023-07-20T21:10:34.741Z,99358.16
2023-07-20T21:14:36.611Z,99362.09
2023-07-20T21:18:38.712Z,99352.38
2023-07-20T21:22:41.420Z,99345.78
2023-07-20T21:26:43.127Z,99339.69
2023-07-20T21:30:46.154Z,99351.72
2023-07-20T21:34:47.948Z,99344.47
2023-07-20T21:38:49.770Z,99345.59
2023-07-20T21:42:52.514Z,99348.75
2023-07-20T21:46:54.414Z,99345.78
2023-07-20T21:50:56.930Z,99335.72
2023-07-20T21:54:58.650Z,99340.31
2023-07-20T21:59:00.543Z,99335.84
2023-07-20T22:03:03.216Z,99338.66
2023-07-20T22:07:14.954Z,99344.59
2023-07-20T22:11:16.931Z,99337.03
2023-07-20T22:15:18.832Z,99336.84
2023-07-20T22:19:20.699Z,99336.69
2023-07-20T22:23:22.829Z,99333.38
2023-07-20T22:27:24.611Z,99327.63
2023-07-20T22:31:26.680Z,99323.50
2023-07-20T22:35:28.927Z,99321.00
2023-07-20T22:39:33.137Z,99328.56
2023-07-20T22:43:34.878Z,99321.84
2023-07-20T22:47:39.787Z,99324.00
2023-07-20T22:51:41.665Z,99324.00
2023-07-20T22:55:47.806Z,99318.88
2023-07-20T22:59:49.826Z,99314.78
2023-07-20T23:03:51.776Z,99318.53
2023-07-20T23:07:54.335Z,99314.94
2023-07-20T23:12:02.334Z,99311.63
2023-07-20T23:16:05.359Z,99304.69
2023-07-20T23:20:19.293Z,99292.69
2023-07-20T23:24:21.253Z,99291.06
2023-07-20T23:28:26.141Z,99291.53
2023-07-20T23:32:27.892Z,99293.88
2023-07-20T23:36:29.738Z,99288.41
2023-07-20T23:40:31.539Z,99280.97
2023-07-20T23:44:33.732Z,99285.59
2023-07-20T23:48:42.391Z,99284.59
2023-07-20T23:52:45.189Z,99295.88
2023-07-20T23:56:47.669Z,99286.50
